sensor_id;sensor_type;location;lat;lon;timestamp;P1;durP1;ratioP1;P2;durP2;ratioP2
20173;SDS011;10246;50.620;7.232;2022-09-09T00:01:07;2.30;;;0.80;;
20173;SDS011;10246;50.620;7.232;2022-09-09T00:03:43;2.97;;;1.07;;
20173;SDS011;10246;50.620;7.232;2022-09-09T00:06:17;1.47;;;0.73;;
20173;SDS011;10246;50.620;7.232;2022-09-09T00:08:52;3.67;;;1.10;;
20173;SDS011;10246;50.620;7.232;2022-09-09T00:11:28;2.33;;;1.00;;
20173;SDS011;10246;50.620;7.232;2022-09-09T00:14:04;4.80;;;1.30;;
20173;SDS011;10246;50.620;7.232;2022-09-09T00:16:38;2.20;;;0.97;;
20173;SDS011;10246;50.620;7.232;2022-09-09T00:19:12;3.37;;;0.90;;
20173;SDS011;10246;50.620;7.232;2022-09-09T00:21:47;3.43;;;1.30;;
20173;SDS011;10246;50.620;7.232;2022-09-09T00:24:23;3.37;;;1.13;;
20173;SDS011;10246;50.620;7.232;2022-09-09T00:26:53;1.60;;;0.90;;
20173;SDS011;10246;50.620;7.232;2022-09-09T00:29:28;2.50;;;1.00;;
20173;SDS011;10246;50.620;7.232;2022-09-09T00:32:05;2.83;;;0.97;;
20173;SDS011;10246;50.620;7.232;2022-09-09T00:34:38;6.17;;;1.00;;
20173;SDS011;10246;50.620;7.232;2022-09-09T00:37:09;1.87;;;0.90;;
20173;SDS011;10246;50.620;7.232;2022-09-09T00:39:37;3.47;;;1.00;;
20173;SDS011;10246;50.620;7.232;2022-09-09T00:42:11;3.50;;;1.03;;
20173;SDS011;10246;50.620;7.232;2022-09-09T00:44:46;3.33;;;0.90;;
20173;SDS011;10246;50.620;7.232;2022-09-09T00:47:35;4.20;;;0.87;;
20173;SDS011;10246;50.620;7.232;2022-09-09T00:50:10;2.57;;;1.00;;
20173;SDS011;10246;50.620;7.232;2022-09-09T00:52:53;1.73;;;0.73;;
20173;SDS011;10246;50.620;7.232;2022-09-09T00:55:28;2.93;;;0.90;;
20173;SDS011;10246;50.620;7.232;2022-09-09T00:58:06;2.00;;;0.90;;
20173;SDS011;10246;50.620;7.232;2022-09-09T01:00:37;2.90;;;0.80;;
20173;SDS011;10246;50.620;7.232;2022-09-09T01:06:00;2.53;;;1.00;;
20173;SDS011;10246;50.620;7.232;2022-09-09T01:08:36;1.27;;;0.90;;
20173;SDS011;10246;50.620;7.232;2022-09-09T01:11:15;3.60;;;0.93;;
20173;SDS011;10246;50.620;7.232;2022-09-09T01:13:48;3.20;;;1.20;;
20173;SDS011;10246;50.620;7.232;2022-09-09T01:16:21;4.33;;;0.90;;
20173;SDS011;10246;50.620;7.232;2022-09-09T01:18:49;2.27;;;0.93;;
20173;SDS011;10246;50.620;7.232;2022-09-09T01:21:20;3.43;;;1.03;;
20173;SDS011;10246;50.620;7.232;2022-09-09T01:24:01;4.00;;;0.90;;
20173;SDS011;10246;50.620;7.232;2022-09-09T01:26:40;4.80;;;1.10;;
20173;SDS011;10246;50.620;7.232;2022-09-09T01:29:09;2.27;;;0.70;;
20173;SDS011;10246;50.620;7.232;2022-09-09T01:31:38;1.63;;;0.77;;
20173;SDS011;10246;50.620;7.232;2022-09-09T01:34:09;2.97;;;1.00;;
20173;SDS011;10246;50.620;7.232;2022-09-09T01:36:38;2.70;;;0.87;;
20173;SDS011;10246;50.620;7.232;2022-09-09T01:39:09;0.87;;;0.80;;
20173;SDS011;10246;50.620;7.232;2022-09-09T01:41:36;1.67;;;0.87;;
20173;SDS011;10246;50.620;7.232;2022-09-09T01:44:06;2.30;;;0.90;;
20173;SDS011;10246;50.620;7.232;2022-09-09T01:46:34;2.07;;;1.10;;
20173;SDS011;10246;50.620;7.232;2022-09-09T01:49:01;1.97;;;0.83;;
20173;SDS011;10246;50.620;7.232;2022-09-09T01:51:29;3.37;;;1.10;;
20173;SDS011;10246;50.620;7.232;2022-09-09T01:53:56;3.73;;;0.80;;
20173;SDS011;10246;50.620;7.232;2022-09-09T01:56:26;3.47;;;1.10;;
20173;SDS011;10246;50.620;7.232;2022-09-09T01:59:03;2.90;;;1.10;;
20173;SDS011;10246;50.620;7.232;2022-09-09T02:01:48;1.47;;;0.83;;
20173;SDS011;10246;50.620;7.232;2022-09-09T02:04:28;1.70;;;0.90;;
20173;SDS011;10246;50.620;7.232;2022-09-09T02:07:02;2.53;;;1.00;;
20173;SDS011;10246;50.620;7.232;2022-09-09T02:09:34;1.80;;;1.10;;
20173;SDS011;10246;50.620;7.232;2022-09-09T02:12:05;1.57;;;1.00;;
20173;SDS011;10246;50.620;7.232;2022-09-09T02:14:39;2.63;;;0.97;;
20173;SDS011;10246;50.620;7.232;2022-09-09T02:17:08;4.20;;;1.27;;
20173;SDS011;10246;50.620;7.232;2022-09-09T02:19:37;3.70;;;1.13;;
20173;SDS011;10246;50.620;7.232;2022-09-09T02:22:11;3.47;;;0.80;;
20173;SDS011;10246;50.620;7.232;2022-09-09T02:24:38;2.77;;;0.97;;
20173;SDS011;10246;50.620;7.232;2022-09-09T02:27:06;1.93;;;0.93;;
20173;SDS011;10246;50.620;7.232;2022-09-09T02:29:36;3.33;;;1.20;;
20173;SDS011;10246;50.620;7.232;2022-09-09T02:32:08;3.67;;;0.90;;
20173;SDS011;10246;50.620;7.232;2022-09-09T02:34:40;4.43;;;1.07;;
20173;SDS011;10246;50.620;7.232;2022-09-09T02:37:10;3.57;;;1.00;;
20173;SDS011;10246;50.620;7.232;2022-09-09T02:39:38;2.50;;;1.20;;
20173;SDS011;10246;50.620;7.232;2022-09-09T02:42:05;2.70;;;1.00;;
20173;SDS011;10246;50.620;7.232;2022-09-09T02:44:32;3.73;;;0.90;;
20173;SDS011;10246;50.620;7.232;2022-09-09T02:47:07;3.20;;;1.00;;
20173;SDS011;10246;50.620;7.232;2022-09-09T02:49:44;2.57;;;1.07;;
20173;SDS011;10246;50.620;7.232;2022-09-09T02:52:22;1.83;;;0.90;;
20173;SDS011;10246;50.620;7.232;2022-09-09T02:54:57;1.63;;;1.00;;
20173;SDS011;10246;50.620;7.232;2022-09-09T02:57:31;2.80;;;1.03;;
20173;SDS011;10246;50.620;7.232;2022-09-09T02:59:59;4.53;;;1.10;;
20173;SDS011;10246;50.620;7.232;2022-09-09T03:02:28;1.97;;;0.90;;
20173;SDS011;10246;50.620;7.232;2022-09-09T03:04:55;1.73;;;0.87;;
20173;SDS011;10246;50.620;7.232;2022-09-09T03:07:22;1.40;;;1.00;;
20173;SDS011;10246;50.620;7.232;2022-09-09T03:09:49;3.73;;;1.13;;
20173;SDS011;10246;50.620;7.232;2022-09-09T03:12:16;1.83;;;1.10;;
20173;SDS011;10246;50.620;7.232;2022-09-09T03:14:42;2.67;;;1.30;;
20173;SDS011;10246;50.620;7.232;2022-09-09T03:17:10;3.10;;;0.90;;
20173;SDS011;10246;50.620;7.232;2022-09-09T03:19:39;3.40;;;1.03;;
20173;SDS011;10246;50.620;7.232;2022-09-09T03:22:06;5.33;;;1.10;;
20173;SDS011;10246;50.620;7.232;2022-09-09T03:24:32;2.90;;;1.20;;
20173;SDS011;10246;50.620;7.232;2022-09-09T03:26:59;3.03;;;1.10;;
20173;SDS011;10246;50.620;7.232;2022-09-09T03:29:26;5.07;;;1.10;;
20173;SDS011;10246;50.620;7.232;2022-09-09T03:31:52;4.47;;;1.13;;
20173;SDS011;10246;50.620;7.232;2022-09-09T03:34:19;4.63;;;1.37;;
20173;SDS011;10246;50.620;7.232;2022-09-09T03:36:47;3.03;;;1.60;;
20173;SDS011;10246;50.620;7.232;2022-09-09T03:39:15;2.60;;;1.20;;
20173;SDS011;10246;50.620;7.232;2022-09-09T03:41:42;3.97;;;1.10;;
20173;SDS011;10246;50.620;7.232;2022-09-09T03:44:12;1.93;;;1.10;;
20173;SDS011;10246;50.620;7.232;2022-09-09T03:46:39;6.40;;;1.40;;
20173;SDS011;10246;50.620;7.232;2022-09-09T03:49:06;3.83;;;1.20;;
20173;SDS011;10246;50.620;7.232;2022-09-09T03:51:33;3.10;;;1.00;;
20173;SDS011;10246;50.620;7.232;2022-09-09T03:54:03;2.17;;;1.00;;
20173;SDS011;10246;50.620;7.232;2022-09-09T03:56:33;3.50;;;1.17;;
20173;SDS011;10246;50.620;7.232;2022-09-09T03:58:59;3.43;;;1.20;;
20173;SDS011;10246;50.620;7.232;2022-09-09T04:01:26;2.63;;;0.97;;
20173;SDS011;10246;50.620;7.232;2022-09-09T04:03:54;2.77;;;1.10;;
20173;SDS011;10246;50.620;7.232;2022-09-09T04:06:23;3.80;;;1.10;;
20173;SDS011;10246;50.620;7.232;2022-09-09T04:08:50;4.23;;;1.40;;
20173;SDS011;10246;50.620;7.232;2022-09-09T04:11:19;6.37;;;1.10;;
20173;SDS011;10246;50.620;7.232;2022-09-09T04:13:46;4.00;;;1.03;;
20173;SDS011;10246;50.620;7.232;2022-09-09T04:16:13;4.63;;;1.10;;
20173;SDS011;10246;50.620;7.232;2022-09-09T04:18:40;2.77;;;1.10;;
20173;SDS011;10246;50.620;7.232;2022-09-09T04:21:08;2.90;;;1.00;;
20173;SDS011;10246;50.620;7.232;2022-09-09T04:23:35;3.50;;;0.90;;
20173;SDS011;10246;50.620;7.232;2022-09-09T04:26:02;1.83;;;0.83;;
20173;SDS011;10246;50.620;7.232;2022-09-09T04:28:31;5.93;;;1.20;;
20173;SDS011;10246;50.620;7.232;2022-09-09T04:31:03;2.87;;;1.20;;
20173;SDS011;10246;50.620;7.232;2022-09-09T04:33:31;4.63;;;1.20;;
20173;SDS011;10246;50.620;7.232;2022-09-09T04:35:58;2.33;;;1.10;;
20173;SDS011;10246;50.620;7.232;2022-09-09T04:38:24;5.57;;;1.30;;
20173;SDS011;10246;50.620;7.232;2022-09-09T04:40:52;2.07;;;0.80;;
20173;SDS011;10246;50.620;7.232;2022-09-09T04:43:19;3.70;;;1.00;;
20173;SDS011;10246;50.620;7.232;2022-09-09T04:45:48;3.57;;;1.23;;
20173;SDS011;10246;50.620;7.232;2022-09-09T04:48:16;7.13;;;1.07;;
20173;SDS011;10246;50.620;7.232;2022-09-09T04:50:43;3.63;;;0.93;;
20173;SDS011;10246;50.620;7.232;2022-09-09T04:53:10;3.93;;;1.20;;
20173;SDS011;10246;50.620;7.232;2022-09-09T04:55:37;3.67;;;1.07;;
20173;SDS011;10246;50.620;7.232;2022-09-09T04:58:04;7.97;;;1.43;;
20173;SDS011;10246;50.620;7.232;2022-09-09T05:00:31;4.83;;;1.30;;
20173;SDS011;10246;50.620;7.232;2022-09-09T05:03:02;2.67;;;1.10;;
20173;SDS011;10246;50.620;7.232;2022-09-09T05:05:29;3.83;;;1.33;;
20173;SDS011;10246;50.620;7.232;2022-09-09T05:08:00;2.40;;;1.10;;
20173;SDS011;10246;50.620;7.232;2022-09-09T05:10:28;2.50;;;1.00;;
20173;SDS011;10246;50.620;7.232;2022-09-09T05:12:55;3.17;;;1.07;;
20173;SDS011;10246;50.620;7.232;2022-09-09T05:15:22;4.30;;;1.13;;
20173;SDS011;10246;50.620;7.232;2022-09-09T05:17:49;5.23;;;1.13;;
20173;SDS011;10246;50.620;7.232;2022-09-09T05:20:18;6.50;;;1.50;;
20173;SDS011;10246;50.620;7.232;2022-09-09T05:22:46;3.03;;;1.20;;
20173;SDS011;10246;50.620;7.232;2022-09-09T05:25:13;3.63;;;1.30;;
20173;SDS011;10246;50.620;7.232;2022-09-09T05:27:39;2.93;;;1.20;;
20173;SDS011;10246;50.620;7.232;2022-09-09T05:30:07;2.70;;;1.00;;
20173;SDS011;10246;50.620;7.232;2022-09-09T05:32:34;4.37;;;1.20;;
20173;SDS011;10246;50.620;7.232;2022-09-09T05:35:01;1.87;;;1.00;;
20173;SDS011;10246;50.620;7.232;2022-09-09T05:37:31;2.40;;;1.10;;
20173;SDS011;10246;50.620;7.232;2022-09-09T05:39:58;3.77;;;1.53;;
20173;SDS011;10246;50.620;7.232;2022-09-09T05:42:29;2.67;;;1.33;;
20173;SDS011;10246;50.620;7.232;2022-09-09T05:44:56;2.57;;;1.10;;
20173;SDS011;10246;50.620;7.232;2022-09-09T05:47:23;3.07;;;1.00;;
20173;SDS011;10246;50.620;7.232;2022-09-09T05:49:52;2.73;;;1.30;;
20173;SDS011;10246;50.620;7.232;2022-09-09T05:52:20;3.27;;;1.07;;
20173;SDS011;10246;50.620;7.232;2022-09-09T05:54:48;5.37;;;1.30;;
20173;SDS011;10246;50.620;7.232;2022-09-09T05:57:15;4.90;;;1.13;;
20173;SDS011;10246;50.620;7.232;2022-09-09T05:59:44;8.03;;;1.60;;
20173;SDS011;10246;50.620;7.232;2022-09-09T06:02:11;6.27;;;1.10;;
20173;SDS011;10246;50.620;7.232;2022-09-09T06:04:38;3.47;;;1.23;;
20173;SDS011;10246;50.620;7.232;2022-09-09T06:07:05;3.87;;;1.40;;
20173;SDS011;10246;50.620;7.232;2022-09-09T06:09:32;3.67;;;1.40;;
20173;SDS011;10246;50.620;7.232;2022-09-09T06:12:00;3.73;;;1.20;;
20173;SDS011;10246;50.620;7.232;2022-09-09T06:14:26;3.87;;;1.30;;
20173;SDS011;10246;50.620;7.232;2022-09-09T06:16:53;6.10;;;1.70;;
20173;SDS011;10246;50.620;7.232;2022-09-09T06:19:21;3.67;;;1.20;;
20173;SDS011;10246;50.620;7.232;2022-09-09T06:21:49;4.70;;;1.20;;
20173;SDS011;10246;50.620;7.232;2022-09-09T06:24:16;5.93;;;1.40;;
20173;SDS011;10246;50.620;7.232;2022-09-09T06:26:44;4.30;;;1.30;;
20173;SDS011;10246;50.620;7.232;2022-09-09T06:29:12;2.37;;;1.20;;
20173;SDS011;10246;50.620;7.232;2022-09-09T06:31:39;3.30;;;1.30;;
20173;SDS011;10246;50.620;7.232;2022-09-09T06:34:06;7.50;;;1.30;;
20173;SDS011;10246;50.620;7.232;2022-09-09T06:36:35;6.73;;;1.40;;
20173;SDS011;10246;50.620;7.232;2022-09-09T06:39:03;5.27;;;1.30;;
20173;SDS011;10246;50.620;7.232;2022-09-09T06:41:31;4.40;;;1.43;;
20173;SDS011;10246;50.620;7.232;2022-09-09T06:43:59;2.77;;;1.40;;
20173;SDS011;10246;50.620;7.232;2022-09-09T06:46:28;3.07;;;1.17;;
20173;SDS011;10246;50.620;7.232;2022-09-09T06:48:57;2.60;;;1.60;;
20173;SDS011;10246;50.620;7.232;2022-09-09T06:51:25;3.83;;;1.33;;
20173;SDS011;10246;50.620;7.232;2022-09-09T06:53:53;3.33;;;1.20;;
20173;SDS011;10246;50.620;7.232;2022-09-09T06:56:22;5.03;;;1.20;;
20173;SDS011;10246;50.620;7.232;2022-09-09T06:58:51;3.53;;;1.30;;
20173;SDS011;10246;50.620;7.232;2022-09-09T07:01:19;2.83;;;1.10;;
20173;SDS011;10246;50.620;7.232;2022-09-09T07:03:49;5.20;;;1.30;;
20173;SDS011;10246;50.620;7.232;2022-09-09T07:06:18;3.97;;;1.10;;
20173;SDS011;10246;50.620;7.232;2022-09-09T07:08:50;5.33;;;1.20;;
20173;SDS011;10246;50.620;7.232;2022-09-09T07:11:18;3.83;;;1.30;;
20173;SDS011;10246;50.620;7.232;2022-09-09T07:13:45;4.33;;;1.40;;
20173;SDS011;10246;50.620;7.232;2022-09-09T07:16:13;6.83;;;1.17;;
20173;SDS011;10246;50.620;7.232;2022-09-09T07:18:41;6.60;;;1.10;;
20173;SDS011;10246;50.620;7.232;2022-09-09T07:21:10;6.57;;;1.10;;
20173;SDS011;10246;50.620;7.232;2022-09-09T07:23:38;3.90;;;1.10;;
20173;SDS011;10246;50.620;7.232;2022-09-09T07:26:07;4.13;;;1.13;;
20173;SDS011;10246;50.620;7.232;2022-09-09T07:28:35;4.13;;;1.20;;
20173;SDS011;10246;50.620;7.232;2022-09-09T07:31:03;6.47;;;1.10;;
20173;SDS011;10246;50.620;7.232;2022-09-09T07:33:31;4.60;;;1.10;;
20173;SDS011;10246;50.620;7.232;2022-09-09T07:36:02;4.13;;;1.43;;
20173;SDS011;10246;50.620;7.232;2022-09-09T07:38:32;4.67;;;1.40;;
20173;SDS011;10246;50.620;7.232;2022-09-09T07:41:03;4.20;;;1.00;;
20173;SDS011;10246;50.620;7.232;2022-09-09T07:43:31;4.60;;;1.30;;
20173;SDS011;10246;50.620;7.232;2022-09-09T07:45:58;4.07;;;1.40;;
20173;SDS011;10246;50.620;7.232;2022-09-09T07:48:27;4.63;;;1.30;;
20173;SDS011;10246;50.620;7.232;2022-09-09T07:51:02;4.00;;;1.27;;
20173;SDS011;10246;50.620;7.232;2022-09-09T07:53:32;5.13;;;1.27;;
20173;SDS011;10246;50.620;7.232;2022-09-09T07:56:04;8.27;;;1.63;;
20173;SDS011;10246;50.620;7.232;2022-09-09T07:58:34;12.93;;;1.30;;
20173;SDS011;10246;50.620;7.232;2022-09-09T08:01:05;3.27;;;1.17;;
20173;SDS011;10246;50.620;7.232;2022-09-09T08:03:33;5.70;;;0.90;;
20173;SDS011;10246;50.620;7.232;2022-09-09T08:06:00;3.53;;;1.03;;
20173;SDS011;10246;50.620;7.232;2022-09-09T08:08:28;5.90;;;1.17;;
20173;SDS011;10246;50.620;7.232;2022-09-09T08:11:04;5.63;;;1.30;;
20173;SDS011;10246;50.620;7.232;2022-09-09T08:13:32;3.50;;;1.03;;
20173;SDS011;10246;50.620;7.232;2022-09-09T08:16:03;5.80;;;1.17;;
20173;SDS011;10246;50.620;7.232;2022-09-09T08:18:31;6.80;;;1.20;;
20173;SDS011;10246;50.620;7.232;2022-09-09T08:21:04;6.33;;;1.10;;
20173;SDS011;10246;50.620;7.232;2022-09-09T08:23:33;2.67;;;0.83;;
20173;SDS011;10246;50.620;7.232;2022-09-09T08:26:05;3.87;;;1.23;;
20173;SDS011;10246;50.620;7.232;2022-09-09T08:28:34;5.63;;;1.20;;
20173;SDS011;10246;50.620;7.232;2022-09-09T08:31:07;4.17;;;1.00;;
20173;SDS011;10246;50.620;7.232;2022-09-09T08:33:36;2.90;;;1.00;;
20173;SDS011;10246;50.620;7.232;2022-09-09T08:36:04;5.40;;;1.27;;
20173;SDS011;10246;50.620;7.232;2022-09-09T08:38:31;4.87;;;1.40;;
20173;SDS011;10246;50.620;7.232;2022-09-09T08:41:01;2.33;;;0.83;;
20173;SDS011;10246;50.620;7.232;2022-09-09T08:43:41;3.17;;;1.17;;
20173;SDS011;10246;50.620;7.232;2022-09-09T08:46:13;6.33;;;0.90;;
20173;SDS011;10246;50.620;7.232;2022-09-09T08:48:47;2.63;;;0.80;;
20173;SDS011;10246;50.620;7.232;2022-09-09T08:51:21;4.27;;;0.90;;
20173;SDS011;10246;50.620;7.232;2022-09-09T08:53:51;3.83;;;0.90;;
20173;SDS011;10246;50.620;7.232;2022-09-09T08:56:21;3.87;;;1.10;;
20173;SDS011;10246;50.620;7.232;2022-09-09T08:58:53;2.57;;;0.83;;
20173;SDS011;10246;50.620;7.232;2022-09-09T09:01:32;2.10;;;0.80;;
20173;SDS011;10246;50.620;7.232;2022-09-09T09:04:11;2.27;;;0.93;;
20173;SDS011;10246;50.620;7.232;2022-09-09T09:06:51;3.43;;;0.80;;
20173;SDS011;10246;50.620;7.232;2022-09-09T09:09:27;1.27;;;0.77;;
20173;SDS011;10246;50.620;7.232;2022-09-09T09:12:07;4.27;;;0.90;;
20173;SDS011;10246;50.620;7.232;2022-09-09T09:14:41;3.97;;;1.07;;
20173;SDS011;10246;50.620;7.232;2022-09-09T09:17:11;2.20;;;0.80;;
20173;SDS011;10246;50.620;7.232;2022-09-09T09:19:40;3.70;;;1.17;;
20173;SDS011;10246;50.620;7.232;2022-09-09T09:22:10;3.23;;;1.00;;
20173;SDS011;10246;50.620;7.232;2022-09-09T09:24:44;2.67;;;0.60;;
20173;SDS011;10246;50.620;7.232;2022-09-09T09:27:18;2.67;;;0.93;;
20173;SDS011;10246;50.620;7.232;2022-09-09T09:29:53;4.90;;;1.07;;
20173;SDS011;10246;50.620;7.232;2022-09-09T09:32:23;2.73;;;0.90;;
20173;SDS011;10246;50.620;7.232;2022-09-09T09:34:53;2.57;;;0.90;;
20173;SDS011;10246;50.620;7.232;2022-09-09T09:37:23;3.93;;;1.07;;
20173;SDS011;10246;50.620;7.232;2022-09-09T09:39:54;2.47;;;0.90;;
20173;SDS011;10246;50.620;7.232;2022-09-09T09:42:22;2.53;;;0.90;;
20173;SDS011;10246;50.620;7.232;2022-09-09T09:44:49;3.43;;;0.97;;
20173;SDS011;10246;50.620;7.232;2022-09-09T09:47:19;2.57;;;0.80;;
20173;SDS011;10246;50.620;7.232;2022-09-09T09:49:53;3.30;;;0.63;;
20173;SDS011;10246;50.620;7.232;2022-09-09T09:52:21;3.10;;;0.90;;
20173;SDS011;10246;50.620;7.232;2022-09-09T09:54:49;3.43;;;0.93;;
20173;SDS011;10246;50.620;7.232;2022-09-09T09:57:17;1.93;;;0.90;;
20173;SDS011;10246;50.620;7.232;2022-09-09T09:59:59;2.47;;;1.10;;
20173;SDS011;10246;50.620;7.232;2022-09-09T10:02:31;4.17;;;1.13;;
20173;SDS011;10246;50.620;7.232;2022-09-09T10:05:05;3.33;;;1.00;;
20173;SDS011;10246;50.620;7.232;2022-09-09T10:07:38;2.07;;;0.87;;
20173;SDS011;10246;50.620;7.232;2022-09-09T10:10:05;1.97;;;0.83;;
20173;SDS011;10246;50.620;7.232;2022-09-09T10:12:39;5.67;;;1.03;;
20173;SDS011;10246;50.620;7.232;2022-09-09T10:15:20;6.30;;;1.27;;
20173;SDS011;10246;50.620;7.232;2022-09-09T10:17:57;6.20;;;1.00;;
20173;SDS011;10246;50.620;7.232;2022-09-09T10:20:34;3.13;;;1.13;;
20173;SDS011;10246;50.620;7.232;2022-09-09T10:23:12;1.40;;;0.90;;
20173;SDS011;10246;50.620;7.232;2022-09-09T10:25:52;3.27;;;0.80;;
20173;SDS011;10246;50.620;7.232;2022-09-09T10:28:37;3.63;;;0.80;;
20173;SDS011;10246;50.620;7.232;2022-09-09T10:31:23;1.73;;;0.97;;
20173;SDS011;10246;50.620;7.232;2022-09-09T10:33:55;3.77;;;0.63;;
20173;SDS011;10246;50.620;7.232;2022-09-09T10:36:27;4.80;;;0.90;;
20173;SDS011;10246;50.620;7.232;2022-09-09T10:38:57;3.63;;;0.70;;
20173;SDS011;10246;50.620;7.232;2022-09-09T10:41:36;3.73;;;0.90;;
20173;SDS011;10246;50.620;7.232;2022-09-09T10:47:21;4.07;;;0.97;;
20173;SDS011;10246;50.620;7.232;2022-09-09T10:50:09;2.70;;;0.83;;
20173;SDS011;10246;50.620;7.232;2022-09-09T10:52:46;2.87;;;0.90;;
20173;SDS011;10246;50.620;7.232;2022-09-09T10:55:20;3.93;;;1.00;;
20173;SDS011;10246;50.620;7.232;2022-09-09T10:57:52;1.80;;;0.70;;
20173;SDS011;10246;50.620;7.232;2022-09-09T11:00:22;2.00;;;0.90;;
20173;SDS011;10246;50.620;7.232;2022-09-09T11:02:54;3.13;;;1.10;;
20173;SDS011;10246;50.620;7.232;2022-09-09T11:05:24;5.17;;;0.90;;
20173;SDS011;10246;50.620;7.232;2022-09-09T11:07:56;5.07;;;1.00;;
20173;SDS011;10246;50.620;7.232;2022-09-09T11:10:26;3.73;;;1.07;;
20173;SDS011;10246;50.620;7.232;2022-09-09T11:13:01;4.33;;;0.90;;
20173;SDS011;10246;50.620;7.232;2022-09-09T11:15:35;2.53;;;0.70;;
20173;SDS011;10246;50.620;7.232;2022-09-09T11:18:10;2.63;;;0.80;;
20173;SDS011;10246;50.620;7.232;2022-09-09T11:20:41;4.33;;;1.07;;
20173;SDS011;10246;50.620;7.232;2022-09-09T11:23:10;3.93;;;0.90;;
20173;SDS011;10246;50.620;7.232;2022-09-09T11:25:43;1.70;;;0.80;;
20173;SDS011;10246;50.620;7.232;2022-09-09T11:28:20;3.70;;;0.87;;
20173;SDS011;10246;50.620;7.232;2022-09-09T11:31:00;2.63;;;1.13;;
20173;SDS011;10246;50.620;7.232;2022-09-09T11:33:46;5.97;;;0.90;;
20173;SDS011;10246;50.620;7.232;2022-09-09T11:42:26;2.90;;;0.70;;
20173;SDS011;10246;50.620;7.232;2022-09-09T11:44:53;2.77;;;0.90;;
20173;SDS011;10246;50.620;7.232;2022-09-09T11:47:23;2.07;;;0.67;;
20173;SDS011;10246;50.620;7.232;2022-09-09T11:50:06;1.97;;;0.63;;
20173;SDS011;10246;50.620;7.232;2022-09-09T11:53:02;2.67;;;0.80;;
20173;SDS011;10246;50.620;7.232;2022-09-09T11:55:47;2.97;;;0.80;;
20173;SDS011;10246;50.620;7.232;2022-09-09T11:58:15;3.90;;;1.07;;
20173;SDS011;10246;50.620;7.232;2022-09-09T12:00:45;2.07;;;0.77;;
20173;SDS011;10246;50.620;7.232;2022-09-09T12:06:09;1.17;;;0.60;;
20173;SDS011;10246;50.620;7.232;2022-09-09T12:08:41;1.37;;;0.77;;
20173;SDS011;10246;50.620;7.232;2022-09-09T12:11:10;3.57;;;0.90;;
20173;SDS011;10246;50.620;7.232;2022-09-09T12:13:37;2.10;;;0.70;;
20173;SDS011;10246;50.620;7.232;2022-09-09T12:16:04;1.40;;;0.80;;
20173;SDS011;10246;50.620;7.232;2022-09-09T12:18:32;1.67;;;0.90;;
20173;SDS011;10246;50.620;7.232;2022-09-09T12:21:03;2.57;;;0.80;;
20173;SDS011;10246;50.620;7.232;2022-09-09T12:23:38;1.40;;;0.80;;
20173;SDS011;10246;50.620;7.232;2022-09-09T12:26:18;1.80;;;0.83;;
20173;SDS011;10246;50.620;7.232;2022-09-09T12:31:50;1.90;;;0.67;;
20173;SDS011;10246;50.620;7.232;2022-09-09T12:34:25;3.33;;;1.00;;
20173;SDS011;10246;50.620;7.232;2022-09-09T12:37:03;2.83;;;0.93;;
20173;SDS011;10246;50.620;7.232;2022-09-09T12:39:36;3.10;;;0.90;;
20173;SDS011;10246;50.620;7.232;2022-09-09T12:42:15;2.17;;;0.73;;
20173;SDS011;10246;50.620;7.232;2022-09-09T12:44:50;2.17;;;0.80;;
20173;SDS011;10246;50.620;7.232;2022-09-09T12:47:21;1.50;;;0.90;;
20173;SDS011;10246;50.620;7.232;2022-09-09T12:49:53;2.53;;;0.70;;
20173;SDS011;10246;50.620;7.232;2022-09-09T12:52:22;3.23;;;1.00;;
20173;SDS011;10246;50.620;7.232;2022-09-09T12:54:56;3.40;;;0.90;;
20173;SDS011;10246;50.620;7.232;2022-09-09T12:57:25;3.90;;;0.70;;
20173;SDS011;10246;50.620;7.232;2022-09-09T13:00:05;2.90;;;0.83;;
20173;SDS011;10246;50.620;7.232;2022-09-09T13:02:36;0.67;;;0.60;;
20173;SDS011;10246;50.620;7.232;2022-09-09T13:05:13;2.57;;;0.60;;
20173;SDS011;10246;50.620;7.232;2022-09-09T13:07:42;1.23;;;0.80;;
20173;SDS011;10246;50.620;7.232;2022-09-09T13:10:12;1.30;;;0.60;;
20173;SDS011;10246;50.620;7.232;2022-09-09T13:12:39;1.50;;;0.50;;
20173;SDS011;10246;50.620;7.232;2022-09-09T13:15:10;2.77;;;0.70;;
20173;SDS011;10246;50.620;7.232;2022-09-09T13:17:48;2.80;;;0.80;;
20173;SDS011;10246;50.620;7.232;2022-09-09T13:20:16;0.97;;;0.70;;
20173;SDS011;10246;50.620;7.232;2022-09-09T13:22:44;2.63;;;0.80;;
20173;SDS011;10246;50.620;7.232;2022-09-09T13:25:19;2.90;;;0.90;;
20173;SDS011;10246;50.620;7.232;2022-09-09T13:28:00;2.40;;;0.70;;
20173;SDS011;10246;50.620;7.232;2022-09-09T13:30:29;2.37;;;0.80;;
20173;SDS011;10246;50.620;7.232;2022-09-09T13:33:05;2.00;;;0.90;;
20173;SDS011;10246;50.620;7.232;2022-09-09T13:35:46;2.27;;;0.60;;
20173;SDS011;10246;50.620;7.232;2022-09-09T13:38:16;2.07;;;0.80;;
20173;SDS011;10246;50.620;7.232;2022-09-09T13:40:53;3.80;;;0.90;;
20173;SDS011;10246;50.620;7.232;2022-09-09T13:43:23;2.60;;;0.93;;
20173;SDS011;10246;50.620;7.232;2022-09-09T13:45:54;6.27;;;0.97;;
20173;SDS011;10246;50.620;7.232;2022-09-09T13:48:22;1.90;;;0.80;;
20173;SDS011;10246;50.620;7.232;2022-09-09T13:50:54;2.13;;;0.80;;
20173;SDS011;10246;50.620;7.232;2022-09-09T13:53:22;1.23;;;0.63;;
20173;SDS011;10246;50.620;7.232;2022-09-09T13:55:49;3.20;;;0.80;;
20173;SDS011;10246;50.620;7.232;2022-09-09T13:58:18;1.33;;;0.63;;
20173;SDS011;10246;50.620;7.232;2022-09-09T14:00:46;3.07;;;0.80;;
20173;SDS011;10246;50.620;7.232;2022-09-09T14:03:13;2.20;;;0.63;;
20173;SDS011;10246;50.620;7.232;2022-09-09T14:05:40;1.60;;;0.70;;
20173;SDS011;10246;50.620;7.232;2022-09-09T14:08:07;2.97;;;0.90;;
20173;SDS011;10246;50.620;7.232;2022-09-09T14:10:41;4.90;;;0.90;;
20173;SDS011;10246;50.620;7.232;2022-09-09T14:13:08;2.47;;;0.70;;
20173;SDS011;10246;50.620;7.232;2022-09-09T14:15:36;4.70;;;0.70;;
20173;SDS011;10246;50.620;7.232;2022-09-09T14:18:02;1.93;;;0.80;;
20173;SDS011;10246;50.620;7.232;2022-09-09T14:20:30;1.67;;;0.70;;
20173;SDS011;10246;50.620;7.232;2022-09-09T14:22:56;1.27;;;0.40;;
20173;SDS011;10246;50.620;7.232;2022-09-09T14:25:23;2.37;;;0.80;;
20173;SDS011;10246;50.620;7.232;2022-09-09T14:27:50;2.57;;;0.87;;
20173;SDS011;10246;50.620;7.232;2022-09-09T14:30:17;1.57;;;0.50;;
20173;SDS011;10246;50.620;7.232;2022-09-09T14:32:45;1.57;;;0.47;;
20173;SDS011;10246;50.620;7.232;2022-09-09T14:35:12;1.37;;;0.50;;
20173;SDS011;10246;50.620;7.232;2022-09-09T14:37:39;2.23;;;0.53;;
20173;SDS011;10246;50.620;7.232;2022-09-09T14:40:06;1.13;;;0.60;;
20173;SDS011;10246;50.620;7.232;2022-09-09T14:42:33;1.20;;;0.50;;
20173;SDS011;10246;50.620;7.232;2022-09-09T14:45:00;1.57;;;0.80;;
20173;SDS011;10246;50.620;7.232;2022-09-09T14:47:27;1.13;;;0.50;;
20173;SDS011;10246;50.620;7.232;2022-09-09T14:49:56;1.60;;;0.63;;
20173;SDS011;10246;50.620;7.232;2022-09-09T14:52:23;1.23;;;0.60;;
20173;SDS011;10246;50.620;7.232;2022-09-09T14:54:52;2.00;;;0.60;;
20173;SDS011;10246;50.620;7.232;2022-09-09T14:57:19;4.03;;;0.53;;
20173;SDS011;10246;50.620;7.232;2022-09-09T14:59:46;2.17;;;0.50;;
20173;SDS011;10246;50.620;7.232;2022-09-09T15:02:15;1.57;;;0.83;;
20173;SDS011;10246;50.620;7.232;2022-09-09T15:04:42;2.87;;;0.67;;
20173;SDS011;10246;50.620;7.232;2022-09-09T15:07:10;1.07;;;0.50;;
20173;SDS011;10246;50.620;7.232;2022-09-09T15:09:37;1.70;;;0.50;;
20173;SDS011;10246;50.620;7.232;2022-09-09T15:12:04;1.80;;;0.50;;
20173;SDS011;10246;50.620;7.232;2022-09-09T15:14:30;0.83;;;0.63;;
20173;SDS011;10246;50.620;7.232;2022-09-09T15:16:57;2.40;;;0.70;;
20173;SDS011;10246;50.620;7.232;2022-09-09T15:19:24;2.17;;;0.70;;
20173;SDS011;10246;50.620;7.232;2022-09-09T15:21:51;2.00;;;0.73;;
20173;SDS011;10246;50.620;7.232;2022-09-09T15:24:20;1.10;;;0.60;;
20173;SDS011;10246;50.620;7.232;2022-09-09T15:26:47;1.90;;;0.70;;